Time;durP1;ratioP1;P1;durP2;ratioP2;P2;SDS_P1;SDS_P2;PMS_P1;PMS_P2;Temp;Humidity;BMP_temperature;BMP_pressure;BME280_temperature;BME280_humidity;BME280_pressure;Samples;Min_cycle;Max_cycle;Signal;HPM_P1;HPM_P2
2021/09/13 00:01:20;;;;;;;38.95;32.55;;;;;;;15.54;76.25;100119.00;1661147;85;21046;-75
2021/09/13 00:03:48;;;;;;;35.83;31.90;;;;;;;15.47;76.65;100116.91;1635225;86;21092;-74
2021/09/13 00:06:17;;;;;;;37.17;32.80;;;;;;;15.43;76.85;100125.13;1607299;87;21091;-75
2021/09/13 00:08:44;;;;;;;35.68;32.05;;;;;;;15.44;76.71;100120.05;1605527;87;21820;-76
2021/09/13 00:11:12;;;;;;;35.85;32.17;;;;;;;15.47;76.55;100117.73;1607676;87;21124;-75
2021/09/13 00:13:42;;;;;;;39.98;33.92;;;;;;;15.57;76.63;100117.19;1596512;88;21425;-75
2021/09/13 00:16:09;;;;;;;37.42;33.45;;;;;;;15.57;76.63;100117.19;1596320;88;21093;-75
2021/09/13 00:18:37;;;;;;;36.70;32.80;;;;;;;15.62;76.93;100118.67;1586447;88;21227;-74
2021/09/13 00:21:04;;;;;;;41.40;32.03;;;;;;;15.66;76.76;100117.17;1589847;88;21138;-75
2021/09/13 00:23:32;;;;;;;37.40;33.45;;;;;;;15.73;76.36;100109.03;1589578;87;21031;-76
2021/09/13 00:26:01;;;;;;;35.88;32.13;;;;;;;15.85;75.52;100111.25;1593968;88;21073;-76
2021/09/13 00:28:28;;;;;;;37.95;34.13;;;;;;;15.85;75.52;100111.25;1586307;88;21076;-76
2021/09/13 00:30:55;;;;;;;38.48;34.48;;;;;;;15.86;75.62;100110.72;1590966;88;21083;-76
2021/09/13 00:33:22;;;;;;;37.90;33.45;;;;;;;15.81;75.64;100114.64;1599958;88;21160;-74
2021/09/13 00:35:49;;;;;;;38.70;34.43;;;;;;;15.75;75.65;100113.16;1588667;87;21097;-74
2021/09/13 00:38:16;;;;;;;39.03;35.05;;;;;;;15.66;75.66;100113.14;1624587;87;21150;-74
2021/09/13 00:40:43;;;;;;;38.98;32.55;;;;;;;15.59;75.73;100115.09;1613108;87;21038;-74
2021/09/13 00:43:11;;;;;;;36.53;31.68;;;;;;;15.57;75.68;100113.16;1613293;87;21141;-74
2021/09/13 00:45:39;;;;;;;37.85;34.08;;;;;;;15.53;75.81;100109.28;1637185;84;21047;-73
2021/09/13 00:48:07;;;;;;;38.73;34.60;;;;;;;15.47;76.01;100108.86;1640567;86;21087;-74
2021/09/13 00:50:35;;;;;;;36.25;32.67;;;;;;;15.38;76.09;100103.77;1644739;86;21067;-74
2021/09/13 00:53:01;;;;;;;36.83;31.30;;;;;;;15.32;76.26;100107.38;1644530;86;21720;-74
2021/09/13 00:55:27;;;;;;;37.23;33.13;;;;;;;15.29;76.80;100106.47;1618189;86;21105;-74
2021/09/13 00:57:54;;;;;;;36.00;32.28;;;;;;;15.30;76.63;100102.75;1625257;87;21080;-75
2021/09/13 01:00:22;;;;;;;35.15;31.12;;;;;;;15.30;76.78;100100.59;1639906;87;21423;-75
2021/09/13 01:02:50;;;;;;;37.20;32.28;;;;;;;15.25;76.66;100095.88;1592775;88;21087;-75
2021/09/13 01:05:16;;;;;;;38.38;32.13;;;;;;;15.16;76.60;100099.41;1612483;87;21469;-77
2021/09/13 01:07:42;;;;;;;;;;;;;;;15.07;76.64;100101.25;1613976;87;21600;-73
2021/09/13 01:10:10;;;;;;;35.03;31.17;;;;;;;14.99;76.76;100103.22;1613563;87;20225;-73
2021/09/13 01:12:37;;;;;;;35.13;31.45;;;;;;;14.96;77.04;100102.31;1623019;86;21086;-74
2021/09/13 01:15:07;;;;;;;34.88;31.00;;;;;;;14.94;76.94;100099.03;1612272;86;21672;-74
2021/09/13 01:17:33;;;;;;;33.60;29.67;;;;;;;14.92;77.00;100101.12;1635306;86;21069;-73
2021/09/13 01:20:01;;;;;;;34.90;31.12;;;;;;;14.89;77.10;100100.20;1633278;86;21129;-74
2021/09/13 01:22:28;;;;;;;33.60;29.75;;;;;;;14.82;77.31;100098.64;1632645;84;21118;-72
2021/09/13 01:24:56;;;;;;;31.82;28.62;;;;;;;14.75;77.31;100097.38;1647602;85;21013;-72
2021/09/13 01:27:24;;;;;;;34.73;31.02;;;;;;;14.70;77.64;100098.03;1649708;85;21043;-72
2021/09/13 01:29:52;;;;;;;35.60;32.05;;;;;;;14.72;77.65;100100.50;1627349;87;21032;-74
2021/09/13 01:32:19;;;;;;;32.48;29.18;;;;;;;14.72;77.73;100100.50;1647125;85;21029;-73
2021/09/13 01:34:50;;;;;;;32.95;29.72;;;;;;;14.70;77.64;100099.37;1642777;84;21106;-73
2021/09/13 01:37:18;;;;;;;35.55;31.73;;;;;;;14.66;77.61;100099.52;1644540;85;21047;-73
2021/09/13 01:39:45;;;;;;;33.78;30.25;;;;;;;14.60;77.72;100098.54;1624407;87;21656;-74
2021/09/13 01:42:14;;;;;;;36.58;31.97;;;;;;;14.55;77.87;100104.23;1621935;87;21559;-73
2021/09/13 01:44:40;;;;;;;31.77;28.73;;;;;;;14.53;77.92;100099.61;1632032;85;21069;-72
2021/09/13 01:47:07;;;;;;;33.30;27.87;;;;;;;14.56;78.00;100104.52;1624271;87;21176;-74
2021/09/13 01:49:33;;;;;;;33.63;30.12;;;;;;;14.57;78.27;100097.63;1652564;85;21048;-73
2021/09/13 01:51:59;;;;;;;;;;;;;;;14.59;78.11;100103.59;1627393;85;21120;-73
2021/09/13 01:54:25;;;;;;;34.27;30.80;;;;;;;14.58;78.18;100103.84;1651802;85;20206;-73
2021/09/13 01:56:52;;;;;;;36.40;31.20;;;;;;;14.46;78.25;100106.36;1633595;85;21658;-73
2021/09/13 01:59:33;;;;;;;33.80;30.25;;;;;;;14.41;78.35;100107.56;1620268;87;21502;-73
2021/09/13 02:01:59;;;;;;;35.55;31.82;;;;;;;14.37;78.28;100108.52;1627537;87;21074;-73
2021/09/13 02:04:26;;;;;;;34.27;30.62;;;;;;;14.38;78.17;100099.94;1603314;87;21056;-73
2021/09/13 02:06:52;;;;;;;;;;;;;;;14.36;78.26;100104.18;1626616;87;21543;-73
2021/09/13 02:09:19;;;;;;;37.27;29.73;;;;;;;14.36;78.27;100098.00;1623817;87;20157;-74
2021/09/13 02:11:46;;;;;;;34.78;31.15;;;;;;;14.30;78.55;100103.72;1617583;85;21840;-73
2021/09/13 02:14:12;;;;;;;32.53;29.07;;;;;;;14.28;78.49;100101.78;1635671;87;21094;-74
2021/09/13 02:16:40;;;;;;;35.55;31.77;;;;;;;14.24;78.84;100099.73;1633459;85;21163;-75
2021/09/13 02:19:07;;;;;;;33.13;29.67;;;;;;;14.17;78.95;100099.80;1635042;85;21168;-75
2021/09/13 02:21:35;;;;;;;33.85;30.25;;;;;;;14.15;78.68;100098.67;1655967;85;21642;-75
2021/09/13 02:24:02;;;;;;;33.08;29.55;;;;;;;14.18;78.57;100102.77;1625542;84;21645;-75
2021/09/13 02:26:27;;;;;;;;;;;;;;;14.20;78.67;100098.85;1635686;86;21028;-75
2021/09/13 02:28:53;;;;;;;31.87;28.70;;;;;;;14.21;78.65;100101.81;1639645;86;20123;-75
2021/09/13 02:31:19;;;;;;;33.75;30.08;;;;;;;14.16;78.79;100100.30;1624279;87;21889;-74
2021/09/13 02:33:47;;;;;;;32.58;29.27;;;;;;;14.17;78.76;100099.28;1609376;86;21184;-74
2021/09/13 02:36:15;;;;;;;33.42;30.00;;;;;;;14.14;78.76;100094.34;1626160;86;21098;-74
2021/09/13 02:38:42;;;;;;;34.13;30.48;;;;;;;14.12;78.77;100099.09;1636894;86;21523;-75
2021/09/13 02:41:09;;;;;;;32.38;29.10;;;;;;;14.13;78.67;100100.75;1640009;86;21543;-74
2021/09/13 02:43:35;;;;;;;33.18;29.32;;;;;;;14.16;78.50;100108.34;1641851;84;21675;-74
2021/09/13 02:46:02;;;;;;;33.58;28.98;;;;;;;14.18;78.49;100106.79;1644250;84;21159;-74
2021/09/13 02:48:29;;;;;;;34.98;30.12;;;;;;;14.21;78.39;100105.84;1635674;86;21539;-74
2021/09/13 02:50:55;;;;;;;;;;;;;;;14.18;78.35;100108.97;1626013;86;21883;-74
2021/09/13 02:53:23;;;;;;;32.78;29.55;;;;;;;14.15;78.50;100108.59;1612587;86;20197;-74
2021/09/13 02:55:49;;;;;;;32.58;29.27;;;;;;;14.07;78.67;100110.17;1625101;86;21573;-74
2021/09/13 02:58:15;;;;;;;34.43;30.00;;;;;;;14.07;78.60;100104.81;1640883;86;22314;-76
2021/09/13 03:00:41;;;;;;;33.23;29.72;;;;;;;14.11;78.49;100102.83;1636510;86;21067;-74
2021/09/13 03:03:08;;;;;;;31.87;28.57;;;;;;;14.14;78.40;100101.56;1635122;86;21174;-75
2021/09/13 03:05:35;;;;;;;32.75;29.42;;;;;;;14.15;78.25;100101.88;1630477;86;21056;-75
2021/09/13 03:08:04;;;;;;;32.67;29.20;;;;;;;14.15;78.42;100106.72;1625125;86;21099;-75
2021/09/13 03:10:31;;;;;;;34.75;30.92;;;;;;;14.16;78.65;100105.66;1622112;86;21084;-75
2021/09/13 03:12:58;;;;;;;36.90;30.27;;;;;;;14.15;78.56;100103.22;1632634;86;21071;-77
2021/09/13 03:15:26;;;;;;;34.95;29.55;;;;;;;14.17;78.41;100105.98;1634850;86;21142;-75
2021/09/13 03:17:55;;;;;;;32.63;28.73;;;;;;;14.23;78.26;100107.49;1624534;86;21068;-75
2021/09/13 03:20:22;;;;;;;32.93;29.57;;;;;;;14.28;78.12;100102.28;1616355;87;21372;-75
2021/09/13 03:22:49;;;;;;;33.10;29.63;;;;;;;14.30;77.77;100103.72;1601876;86;21715;-75
2021/09/13 03:25:15;;;;;;;33.53;29.32;;;;;;;14.28;77.75;100104.95;1579122;88;21047;-75
2021/09/13 03:27:42;;;;;;;33.90;30.45;;;;;;;14.20;77.93;100101.53;1583097;88;21141;-75
2021/09/13 03:30:11;;;;;;;33.13;29.37;;;;;;;14.17;78.12;100112.67;1577624;88;21094;-74
2021/09/13 03:32:37;;;;;;;31.80;28.38;;;;;;;14.19;78.13;100110.59;1590552;88;21038;-75
2021/09/13 03:35:07;;;;;;;31.87;28.45;;;;;;;14.26;78.01;100108.37;1593067;88;21041;-74
2021/09/13 03:37:33;;;;;;;31.65;27.35;;;;;;;14.28;77.86;100107.14;1598383;88;21110;-75
2021/09/13 03:39:59;;;;;;;34.38;30.45;;;;;;;14.29;77.66;100108.77;1602491;87;21078;-75
2021/09/13 03:42:26;;;;;;;33.33;29.20;;;;;;;14.30;77.91;100103.72;1602718;87;21094;-76
2021/09/13 03:44:52;;;;;;;33.18;29.77;;;;;;;14.29;77.95;100104.74;1636181;85;21640;-75
2021/09/13 03:47:32;;;;;;;37.95;30.50;;;;;;;14.25;77.98;100106.23;1613915;87;21158;-75
2021/09/13 03:52:07;;;;;;;38.63;31.30;;;;;;;14.34;78.03;100098.74;1792917;77;23391;-50
2021/09/13 03:54:31;;;;;;;35.43;29.00;;;;;;;14.30;78.10;100106.40;1765794;78;21088;-49
2021/09/13 03:56:58;;;;;;;41.42;28.83;;;;;;;14.35;78.48;100104.39;1737586;78;21145;-49
2021/09/13 03:59:24;;;;;;;39.05;29.77;;;;;;;14.44;78.59;100105.76;1710152;82;21575;-50
2021/09/13 04:01:51;;;;;;;37.90;31.50;;;;;;;14.56;78.86;100109.88;1711907;82;21007;-49
2021/09/13 04:04:24;;;;;;;36.15;28.87;;;;;;;14.66;78.33;100106.75;1712312;82;21037;-49
2021/09/13 04:06:52;;;;;;;33.73;30.08;;;;;;;14.83;78.06;100107.00;1721834;82;21053;-51
2021/09/13 04:11:56;;;;;;;32.38;28.98;;;;;;;15.46;75.82;100105.33;1695770;82;21149;-51
2021/09/13 04:14:36;;;;;;;34.50;29.18;;;;;;;15.86;74.56;100106.19;1625322;84;21036;-50
2021/09/13 04:17:04;;;;;;;31.02;27.67;;;;;;;16.38;72.99;100105.59;1698656;83;21568;-49
2021/09/13 04:19:52;;;;;;;34.05;30.30;;;;;;;16.87;71.67;100106.20;1697102;83;21571;-51
2021/09/13 04:22:21;;;;;;;32.83;29.57;;;;;;;17.47;70.19;100102.88;1692378;83;21006;-56
2021/09/13 04:24:56;;;;;;;32.15;28.90;;;;;;;18.04;67.89;100102.86;1687981;83;21521;-53
2021/09/13 04:27:29;;;;;;;31.52;28.20;;;;;;;18.61;65.37;100106.47;1697535;83;22104;-55
2021/09/13 04:30:14;;;;;;;32.85;29.35;;;;;;;19.10;63.60;100106.66;1700905;83;21135;-55
2021/09/13 04:32:53;;;;;;;32.33;28.00;;;;;;;19.60;61.73;100104.27;1690771;83;21001;-54
2021/09/13 04:35:21;;;;;;;35.43;28.45;;;;;;;20.05;60.18;100101.50;1681800;81;21267;-56
2021/09/13 04:38:07;;;;;;;38.38;29.77;;;;;;;20.43;58.87;100092.33;1695104;83;21072;-56
2021/09/13 04:40:35;;;;;;;36.05;28.42;;;;;;;20.91;57.22;100108.66;1695298;83;21780;-55
2021/09/13 04:43:09;;;;;;;36.53;28.57;;;;;;;21.23;56.06;100106.35;1700647;83;21070;-56
2021/09/13 04:45:46;;;;;;;37.80;28.02;;;;;;;21.51;55.01;100101.91;1694610;82;20989;-57
2021/09/13 04:48:31;;;;;;;38.55;28.15;;;;;;;21.79;54.33;100094.34;1694959;83;21060;-55
2021/09/13 04:51:00;;;;;;;37.40;28.10;;;;;;;22.07;53.40;100090.86;1686799;83;21561;-55
2021/09/13 04:53:44;;;;;;;36.10;27.30;;;;;;;22.34;52.60;100092.80;1622105;83;21128;-55
2021/09/13 04:56:15;;;;;;;30.92;27.55;;;;;;;22.67;51.57;100093.28;1684359;83;22204;-56
2021/09/13 04:58:42;;;;;;;31.75;27.55;;;;;;;23.01;50.11;100091.29;1663472;84;21092;-57
2021/09/13 05:01:08;;;;;;;37.33;27.13;;;;;;;23.33;49.33;100090.91;1668907;83;21080;-56
2021/09/13 05:03:35;;;;;;;30.62;27.32;;;;;;;23.65;48.39;100085.58;1660521;84;21583;-56
2021/09/13 05:06:04;;;;;;;31.12;25.88;;;;;;;24.02;47.71;100086.19;1664714;84;21066;-57
2021/09/13 05:08:31;;;;;;;27.40;23.30;;;;;;;24.36;46.50;100082.64;1676858;83;21202;-56
2021/09/13 05:10:59;;;;;;;27.05;24.20;;;;;;;24.71;45.72;100083.39;1657470;84;21611;-57
2021/09/13 05:13:26;;;;;;;26.68;23.62;;;;;;;25.01;44.99;100083.60;1662905;82;21549;-56
2021/09/13 05:15:55;;;;;;;30.48;24.82;;;;;;;25.27;44.46;100083.33;1653418;84;21087;-56
2021/09/13 05:18:21;;;;;;;24.67;22.15;;;;;;;25.51;43.23;100086.02;1660760;84;21580;-56
2021/09/13 05:20:49;;;;;;;23.38;20.97;;;;;;;25.74;42.98;100077.48;1657597;84;21597;-57
2021/09/13 05:23:17;;;;;;;27.52;21.37;;;;;;;25.94;41.68;100080.49;1654687;84;21035;-56
2021/09/13 05:25:44;;;;;;;25.52;21.40;;;;;;;26.12;42.08;100075.53;1648068;84;21087;-58
2021/09/13 05:28:11;;;;;;;25.17;19.62;;;;;;;26.34;41.70;100073.52;1652181;84;21032;-56
2021/09/13 05:30:37;;;;;;;21.30;19.07;;;;;;;26.54;40.73;100072.89;1650875;84;21067;-56
2021/09/13 05:33:05;;;;;;;20.12;17.98;;;;;;;26.66;39.54;100073.81;1644243;85;21056;-55
2021/09/13 05:35:33;;;;;;;16.40;14.83;;;;;;;26.75;39.09;100069.27;1652184;84;21111;-55
2021/09/13 05:38:00;;;;;;;15.20;13.60;;;;;;;26.85;37.89;100075.09;1653590;84;21099;-55
2021/09/13 05:40:26;;;;;;;17.52;14.23;;;;;;;26.95;36.97;100067.47;1650904;84;21081;-55
2021/09/13 05:42:53;;;;;;;16.12;14.53;;;;;;;27.04;36.99;100065.41;1649079;84;21091;-56
2021/09/13 05:45:20;;;;;;;16.62;15.03;;;;;;;27.10;36.60;100066.91;1650421;84;21507;-56
2021/09/13 05:47:47;;;;;;;16.32;14.63;;;;;;;27.13;36.50;100067.67;1647347;84;21149;-55
2021/09/13 05:50:13;;;;;;;16.60;14.90;;;;;;;27.26;36.97;100063.34;1648846;84;22208;-60
2021/09/13 05:52:39;;;;;;;16.75;14.93;;;;;;;27.44;36.20;100073.88;1652598;84;21072;-59
2021/09/13 05:55:07;;;;;;;16.95;14.00;;;;;;;27.51;36.76;100071.53;1648780;84;21056;-57
2021/09/13 05:57:33;;;;;;;15.23;12.60;;;;;;;27.57;36.02;100068.92;1656016;84;21140;-61
2021/09/13 06:00:04;;;;;;;15.88;13.93;;;;;;;27.62;35.43;100066.64;1650083;84;21084;-61
2021/09/13 06:02:34;;;;;;;16.42;14.83;;;;;;;27.71;35.29;100066.96;1655370;84;21120;-60
2021/09/13 06:05:20;;;;;;;16.90;14.73;;;;;;;27.81;35.01;100056.31;1621435;85;79657;-82
2021/09/13 06:07:47;;;;;;;20.12;18.10;;;;;;;27.98;35.00;100062.52;1625473;86;21006;-82
2021/09/13 06:10:17;;;;;;;22.67;18.07;;;;;;;28.17;34.43;100063.67;1620148;88;21130;-82
2021/09/13 06:12:43;;;;;;;21.42;17.82;;;;;;;28.26;34.36;100070.02;1643974;85;21573;-84
2021/09/13 06:15:10;;;;;;;22.42;16.57;;;;;;;28.29;34.23;100061.19;1651217;87;21537;-82
2021/09/13 06:17:40;;;;;;;20.17;17.32;;;;;;;28.28;34.58;100065.03;1649027;86;21050;-82
2021/09/13 06:20:12;;;;;;;19.25;17.32;;;;;;;28.18;34.36;100063.11;1643443;86;21129;-83
2021/09/13 06:22:40;;;;;;;17.35;15.15;;;;;;;27.92;34.99;100061.03;1635541;86;21105;-83
2021/09/13 06:25:10;;;;;;;20.45;14.98;;;;;;;27.82;35.51;100062.59;1616942;87;21373;-83
2021/09/13 06:27:39;;;;;;;18.20;15.60;;;;;;;27.82;35.42;100067.53;1617574;87;21137;-83
2021/09/13 06:30:06;;;;;;;21.25;15.53;;;;;;;27.70;36.00;100068.06;1664060;84;21669;-83
2021/09/13 06:32:32;;;;;;;16.02;13.85;;;;;;;27.60;36.01;100060.67;1664858;84;21074;-82
2021/09/13 06:35:01;;;;;;;19.60;15.28;;;;;;;27.49;36.81;100066.92;1659416;84;21084;-81
2021/09/13 06:37:32;;;;;;;16.97;14.55;;;;;;;27.51;36.82;100069.59;1669710;84;20998;-82
2021/09/13 06:39:59;;;;;;;17.20;13.88;;;;;;;27.52;36.31;100064.39;1673997;83;21049;-86
2021/09/13 06:42:30;;;;;;;14.30;12.93;;;;;;;26.23;36.34;99889.05;1675976;83;21112;-83
2021/09/13 06:45:07;;;;;;;20.82;14.80;;;;;;;27.08;36.79;100071.88;1661695;84;21061;-83
2021/09/13 06:49:56;;;;;;;17.05;11.65;;;;;;;26.06;38.71;100070.47;1649883;85;21166;-83
2021/09/13 06:52:22;;;;;;;17.60;11.20;;;;;;;25.65;39.82;100066.41;1645125;85;21209;-87
2021/09/13 06:54:49;;;;;;;18.17;12.95;;;;;;;25.34;40.01;100066.05;1645914;85;21645;-86
2021/09/13 06:57:15;;;;;;;16.25;12.00;;;;;;;25.05;40.62;100071.00;1672942;84;21052;-86
2021/09/13 06:59:42;;;;;;;14.87;12.03;;;;;;;24.79;41.26;100069.12;1670800;84;21129;-85
2021/09/13 07:02:08;;;;;;;18.52;12.07;;;;;;;24.58;41.86;100069.38;1670326;84;21102;-86
2021/09/13 07:04:34;;;;;;;15.83;11.55;;;;;;;24.39;42.21;100074.70;1657251;84;21158;-85
2021/09/13 07:07:01;;;;;;;16.97;11.45;;;;;;;24.06;42.54;100043.13;1660241;85;21637;-84
2021/09/13 07:09:27;;;;;;;20.40;11.80;;;;;;;24.15;43.21;100086.06;1656718;85;21602;-83
2021/09/13 07:11:57;;;;;;;24.63;13.30;;;;;;;24.06;43.45;100081.23;1664788;85;21033;-84
2021/09/13 07:14:24;;;;;;;18.92;12.03;;;;;;;23.98;43.82;100074.22;1648364;85;21033;-84
2021/09/13 07:16:51;;;;;;;16.12;11.73;;;;;;;23.94;43.21;100075.89;1659218;85;21030;-85
2021/09/13 07:19:19;;;;;;;18.57;12.05;;;;;;;23.90;44.28;100078.36;1661587;85;21201;-85
2021/09/13 07:21:47;;;;;;;14.73;11.30;;;;;;;23.86;44.09;100074.03;1653690;85;21137;-87
2021/09/13 07:24:16;;;;;;;16.87;13.03;;;;;;;23.85;44.37;100076.50;1657373;84;21551;-85
2021/09/13 07:26:42;;;;;;;14.50;12.25;;;;;;;23.87;44.09;100076.22;1658305;84;21101;-86
2021/09/13 07:29:08;;;;;;;14.23;12.75;;;;;;;23.87;44.23;100082.47;1689331;84;21044;-85
2021/09/13 07:31:35;;;;;;;14.25;12.75;;;;;;;23.86;44.03;100080.03;1677227;84;21057;-85
2021/09/13 07:34:02;;;;;;;17.70;12.10;;;;;;;23.86;44.38;100079.47;1691835;83;21066;-85
2021/09/13 07:36:32;;;;;;;16.37;12.53;;;;;;;23.87;44.57;100077.03;1655582;84;21110;-87
2021/09/13 07:38:59;;;;;;;23.27;12.78;;;;;;;23.95;43.95;100081.61;1662674;84;21018;-84
2021/09/13 07:41:25;;;;;;;13.08;11.60;;;;;;;23.99;43.66;100085.38;1659888;83;21100;-83
2021/09/13 07:43:53;;;;;;;15.13;11.45;;;;;;;24.03;43.74;100080.98;1664663;83;21153;-85
2021/09/13 07:46:19;;;;;;;17.37;12.93;;;;;;;24.09;43.47;100089.38;1718114;82;21532;-86
2021/09/13 07:48:45;;;;;;;16.67;12.00;;;;;;;24.15;43.65;100087.42;1727943;82;21021;-86
2021/09/13 07:51:12;;;;;;;16.57;12.28;;;;;;;24.18;43.52;100087.67;1730808;82;21641;-87
2021/09/13 07:53:39;;;;;;;13.35;9.93;;;;;;;24.21;43.18;100084.95;1717968;82;21106;-84
2021/09/13 07:56:05;;;;;;;12.95;10.90;;;;;;;24.22;43.66;100081.94;1704361;82;21092;-84
2021/09/13 07:58:31;;;;;;;17.77;10.60;;;;;;;24.24;43.35;100081.10;1683052;83;21021;-84
2021/09/13 08:00:59;;;;;;;13.75;10.05;;;;;;;24.33;43.31;100079.11;1706672;83;21060;-86
2021/09/13 08:03:25;;;;;;;11.55;10.45;;;;;;;24.40;42.92;100079.04;1728828;81;21937;-85
2021/09/13 08:05:51;;;;;;;12.37;10.30;;;;;;;24.48;42.65;100083.85;1740669;81;21075;-83
2021/09/13 08:08:17;;;;;;;12.10;10.45;;;;;;;24.53;42.38;100087.13;1731716;81;21030;-83
2021/09/13 08:10:43;;;;;;;12.28;10.38;;;;;;;24.59;42.42;100084.61;1714502;81;21108;-83
2021/09/13 08:13:12;;;;;;;11.85;10.23;;;;;;;24.64;42.75;100076.95;1717225;81;21496;-84
2021/09/13 08:15:39;;;;;;;15.08;9.98;;;;;;;24.67;42.65;100079.88;1715438;81;21503;-81
2021/09/13 08:18:08;;;;;;;10.40;9.23;;;;;;;24.68;42.37;100076.62;1686413;83;21077;-83
2021/09/13 08:20:35;;;;;;;13.50;10.03;;;;;;;24.68;42.08;100071.97;1687123;83;21116;-85
2021/09/13 08:23:03;;;;;;;15.72;9.70;;;;;;;24.74;41.62;100074.66;1688316;80;21037;-85
2021/09/13 08:25:30;;;;;;;15.30;10.28;;;;;;;24.79;41.67;100067.77;1723737;83;21452;-85
2021/09/13 08:28:12;;;;;;;9.65;8.65;;;;;;;24.83;41.57;100067.47;1718863;81;21096;-84
2021/09/13 08:30:39;;;;;;;14.90;10.68;;;;;;;24.88;41.39;100064.66;1728610;81;21642;-84
2021/09/13 08:33:04;;;;;;;11.80;8.73;;;;;;;24.94;41.42;100064.88;1729035;81;21037;-83
2021/09/13 08:35:31;;;;;;;12.75;9.40;;;;;;;24.96;40.16;100068.13;1697076;82;21034;-84
2021/09/13 08:37:59;;;;;;;9.98;8.38;;;;;;;24.92;40.31;100061.64;1683940;84;21632;-83
2021/09/13 08:40:25;;;;;;;10.23;8.90;;;;;;;24.93;40.80;100064.61;1695631;82;21074;-84
2021/09/13 08:42:51;;;;;;;9.58;7.45;;;;;;;24.97;41.20;100067.01;1717990;81;21165;-84
2021/09/13 08:45:27;;;;;;;11.78;8.58;;;;;;;25.01;41.19;100063.95;1720506;81;21505;-83
2021/09/13 08:47:56;;;;;;;15.83;8.35;;;;;;;25.09;40.52;100061.69;1728438;81;21124;-82
2021/09/13 08:52:51;;;;;;;9.95;8.00;;;;;;;25.15;39.95;100057.82;1692124;82;21085;-83
2021/09/13 08:55:18;;;;;;;12.82;8.33;;;;;;;25.12;39.95;100059.20;1723985;81;21156;-82
2021/09/13 08:57:45;;;;;;;14.30;8.18;;;;;;;25.15;39.64;100060.55;1698954;84;21291;-81
2021/09/13 09:00:15;;;;;;;8.88;7.30;;;;;;;25.22;39.39;100060.97;1697737;83;21055;-80
2021/09/13 09:02:43;;;;;;;6.97;6.30;;;;;;;25.32;38.52;100053.27;1687822;82;21266;-81
2021/09/13 09:05:11;;;;;;;12.40;7.62;;;;;;;25.35;38.64;100054.02;1712369;82;21133;-83
2021/09/13 09:07:53;;;;;;;9.50;7.12;;;;;;;25.38;39.00;100048.79;1708053;82;20971;-82
2021/09/13 09:10:23;;;;;;;9.70;7.78;;;;;;;25.42;38.85;100049.02;1693519;83;21652;-82
2021/09/13 09:13:13;;;;;;;14.03;8.70;;;;;;;25.41;38.35;100054.20;1715197;81;21593;-81
2021/09/13 09:15:57;;;;;;;11.57;8.08;;;;;;;25.38;38.79;100050.16;1704273;83;21030;-84
2021/09/13 09:18:44;;;;;;;8.75;7.95;;;;;;;25.39;38.76;100044.14;1706004;82;21153;-85
2021/09/13 09:21:30;;;;;;;8.63;7.72;;;;;;;25.39;38.95;100049.06;1708788;84;21060;-81
2021/09/13 09:24:07;;;;;;;16.82;7.78;;;;;;;25.41;38.60;100044.65;1664470;84;21116;-83
2021/09/13 09:26:33;;;;;;;10.03;7.55;;;;;;;25.47;38.32;100042.12;1682652;84;21103;-83
2021/09/13 09:29:00;;;;;;;7.42;6.92;;;;;;;25.55;38.35;100039.28;1676231;84;21018;-84
2021/09/13 09:31:44;;;;;;;9.48;6.87;;;;;;;25.62;37.13;100036.44;1670519;84;21608;-85
2021/09/13 09:34:18;;;;;;;9.25;7.80;;;;;;;25.66;37.50;100030.40;1678247;82;21041;-82
2021/09/13 09:37:12;;;;;;;8.43;7.22;;;;;;;25.69;37.23;100025.69;1682892;83;21019;-81
2021/09/13 09:39:48;;;;;;;8.48;6.83;;;;;;;25.69;37.28;100032.52;1689014;83;21108;-82
2021/09/13 09:42:31;;;;;;;8.20;6.93;;;;;;;25.71;37.61;100025.67;1693542;83;21423;-83
2021/09/13 09:45:18;;;;;;;11.33;7.50;;;;;;;25.73;36.96;100028.08;1699133;82;21074;-84
2021/09/13 09:47:44;;;;;;;8.78;7.87;;;;;;;25.72;37.08;100023.75;1700963;83;21021;-84
2021/09/13 09:50:10;;;;;;;7.97;7.15;;;;;;;25.71;37.29;100030.30;1656621;84;21783;-84
2021/09/13 09:52:40;;;;;;;10.70;7.87;;;;;;;25.70;36.84;100025.96;1712837;82;22247;-83
2021/09/13 09:55:19;;;;;;;7.75;6.75;;;;;;;25.74;36.79;100025.62;1662723;84;21069;-84
2021/09/13 09:58:05;;;;;;;8.80;7.60;;;;;;;25.81;36.74;100028.22;1708833;82;20977;-86
2021/09/13 10:00:34;;;;;;;7.22;6.42;;;;;;;25.84;36.59;100024.08;1710484;83;21363;-87
2021/09/13 10:03:00;;;;;;;7.92;6.72;;;;;;;25.81;36.39;100024.69;1711832;83;21053;-84
2021/09/13 10:05:29;;;;;;;7.53;6.87;;;;;;;25.78;35.74;100030.17;1717712;83;22104;-81
2021/09/13 10:07:56;;;;;;;7.37;6.67;;;;;;;25.76;35.27;100027.50;1674598;84;21493;-86
2021/09/13 10:10:30;;;;;;;7.67;6.08;;;;;;;25.71;35.25;100026.20;1704963;83;21137;-85
2021/09/13 10:13:00;;;;;;;13.05;6.85;;;;;;;25.66;35.13;100027.11;1706252;83;21030;-87
2021/09/13 10:15:28;;;;;;;7.03;6.33;;;;;;;25.66;34.85;100012.09;1689912;83;21072;-85
2021/09/13 10:17:55;;;;;;;7.85;7.28;;;;;;;25.72;34.96;100012.83;1695823;83;21069;-85
2021/09/13 10:20:23;;;;;;;10.25;6.85;;;;;;;25.81;35.19;100017.87;1670349;83;21100;-84
2021/09/13 10:22:54;;;;;;;8.20;7.37;;;;;;;25.88;35.30;100018.84;1706747;82;21042;-87
2021/09/13 10:25:21;;;;;;;10.63;7.72;;;;;;;25.92;35.33;100017.98;1707680;82;21077;-85
2021/09/13 10:27:48;;;;;;;10.85;7.03;;;;;;;25.90;35.42;100015.25;1713525;83;21074;-85
2021/09/13 10:30:24;;;;;;;9.08;7.65;;;;;;;25.85;35.20;100005.23;1716154;82;21623;-91
2021/09/13 10:32:52;;;;;;;9.38;8.05;;;;;;;25.81;35.50;99996.03;1726210;81;21174;-90
2021/09/13 10:35:24;;;;;;;8.63;7.20;;;;;;;25.83;35.94;100002.00;1716770;81;21740;-91
2021/09/13 10:37:54;;;;;;;11.55;8.20;;;;;;;25.90;35.86;99998.87;1713670;83;20998;-94
2021/09/13 10:40:25;;;;;;;10.25;7.78;;;;;;;25.94;35.93;99998.58;1730313;82;21153;-89
2021/09/13 10:43:17;;;;;;;11.12;8.23;;;;;;;25.97;36.20;99995.23;1718964;82;21159;-90
2021/09/13 10:45:44;;;;;;;7.55;6.80;;;;;;;26.00;36.35;99993.28;1727518;81;21057;-90
2021/09/13 10:48:20;;;;;;;9.13;8.28;;;;;;;26.05;36.36;99991.83;1733459;82;21814;-91
2021/09/13 10:51:00;;;;;;;8.03;6.90;;;;;;;26.10;36.38;99987.63;1685205;83;21608;-91
2021/09/13 10:53:32;;;;;;;10.03;8.08;;;;;;;26.09;36.60;99990.11;1709080;82;21237;-91
2021/09/13 10:56:05;;;;;;;8.03;7.33;;;;;;;26.09;36.73;99984.66;1722208;82;21028;-90
2021/09/13 10:58:44;;;;;;;8.23;7.45;;;;;;;26.13;36.96;99987.03;1735903;82;21018;-93
2021/09/13 11:01:27;;;;;;;10.65;8.13;;;;;;;26.17;36.75;99981.22;1681046;85;21041;-93
2021/09/13 11:04:07;;;;;;;9.30;8.20;;;;;;;26.19;36.76;99976.82;1734033;82;21018;-90
2021/09/13 11:06:43;;;;;;;11.85;8.10;;;;;;;26.22;36.92;99982.50;1732445;82;21070;-92
2021/09/13 11:09:14;;;;;;;16.83;8.10;;;;;;;26.25;37.20;99975.61;1730293;82;21155;-91
2021/09/13 11:11:45;;;;;;;11.55;7.53;;;;;;;26.26;36.89;99969.05;1736729;81;21314;-88
2021/09/13 11:14:20;;;;;;;9.10;7.85;;;;;;;26.27;36.58;99972.58;1737311;82;21039;-91
2021/09/13 11:16:57;;;;;;;10.55;7.58;;;;;;;26.29;36.71;99971.16;1720091;81;21077;-91
2021/09/13 11:19:29;;;;;;;11.22;8.50;;;;;;;26.29;36.33;99964.89;1736298;78;20991;-92
2021/09/13 11:22:02;;;;;;;9.78;8.35;;;;;;;26.32;36.31;99957.47;1738898;81;21011;-91
2021/09/13 11:24:34;;;;;;;11.05;7.62;;;;;;;26.32;36.27;99965.09;1730795;82;21062;-91
2021/09/13 11:27:12;;;;;;;7.97;7.37;;;;;;;26.36;36.17;99959.84;1733885;82;21102;-91
2021/09/13 11:29:46;;;;;;;;;;;;;;;26.37;35.86;99954.08;1734945;81;20992;-92
2021/09/13 11:32:16;;;;;;;8.43;7.10;;;;;;;26.35;35.80;99955.48;1725731;82;20125;-91
2021/09/13 11:34:49;;;;;;;8.05;7.33;;;;;;;26.27;35.94;99954.83;1724581;82;21002;-91